Richland, Iowa
Current Conditions -  °F | °C
As of 8:35 AM on Thursday 30 Oct 2014 (Local Time) from KFFL Reporting Station
Overcast Overcast  
Wind Chill: 39°   Ceiling: 9000
Heat Index: 43°   Visibility: NA
Dew Point: 36°   Wind: 7mph
Humidity: 76%   Direction: 140°SE
Pressure: 30.08"   Gusts: NA
Location:  41.19°N, 91.99°W
Report Text: KFFL 301335Z AUTO 14006KT OVC090 06/02 A3008 RMK AO2
Loading
Personal Weather Stations






























Interactive Weather Map
Tropical Storm Tracking
New forecast layout! Learn more

10-Day Weather Forecast

Advertisements
Track Severe Weather on mobile